createdAt,value
2023-05-10T00:00:50.180Z,57.11
2023-05-10T00:03:57.594Z,56.68
2023-05-10T00:07:01.714Z,56.65
2023-05-10T00:10:07.305Z,56.67
2023-05-10T00:13:11.134Z,57.34
2023-05-10T00:16:14.858Z,57.10
2023-05-10T00:19:18.855Z,57.22
2023-05-10T00:22:24.068Z,57.11
2023-05-10T00:25:29.306Z,57.48
2023-05-10T00:28:32.691Z,57.18
2023-05-10T00:31:36.500Z,57.51
2023-05-10T00:34:40.124Z,56.99
2023-05-10T00:37:44.042Z,57.41
2023-05-10T00:40:49.521Z,57.42
2023-05-10T00:44:03.128Z,57.16
2023-05-10T00:47:06.983Z,57.44
2023-05-10T00:50:12.124Z,58.39
2023-05-10T00:53:16.408Z,58.04
2023-05-10T00:56:26.335Z,57.99
2023-05-10T00:59:30.754Z,58.29
2023-05-10T01:02:36.921Z,58.37
2023-05-10T01:05:40.561Z,58.75
2023-05-10T01:08:44.658Z,58.46
2023-05-10T01:11:51.366Z,58.39
2023-05-10T01:14:56.448Z,58.10
2023-05-10T01:18:00.430Z,57.95
2023-05-10T01:21:17.119Z,57.72
2023-05-10T01:24:50.233Z,58.24
2023-05-10T01:28:35.034Z,57.88
2023-05-10T01:32:05.185Z,58.26
2023-05-10T01:35:19.186Z,58.20
2023-05-10T01:38:29.855Z,58.66
2023-05-10T01:41:42.008Z,58.72
2023-05-10T01:44:55.651Z,59.51
2023-05-10T01:48:08.558Z,60.73
2023-05-10T01:51:14.489Z,60.77
2023-05-10T01:54:21.512Z,61.13
2023-05-10T01:57:28.926Z,62.14
2023-05-10T02:00:35.599Z,61.89
2023-05-10T02:03:42.250Z,62.02
2023-05-10T02:06:49.480Z,62.44
2023-05-10T02:09:53.930Z,63.13
2023-05-10T02:13:01.824Z,62.51
2023-05-10T02:16:07.598Z,63.18
2023-05-10T02:19:14.107Z,62.90
2023-05-10T02:22:20.993Z,63.16
2023-05-10T02:25:25.888Z,62.29
2023-05-10T02:28:30.482Z,61.54
2023-05-10T02:31:35.627Z,61.74
2023-05-10T02:34:40.653Z,61.95
2023-05-10T02:37:47.349Z,61.60
2023-05-10T02:40:51.386Z,60.78
2023-05-10T02:43:59.445Z,60.77
2023-05-10T02:47:03.225Z,61.25
2023-05-10T02:50:08.135Z,61.47
2023-05-10T02:53:21.029Z,60.66
2023-05-10T02:56:30.920Z,61.04
2023-05-10T02:59:34.747Z,60.80
2023-05-10T03:02:38.804Z,60.54
2023-05-10T03:05:42.700Z,60.74
2023-05-10T03:08:47.937Z,62.69
2023-05-10T03:12:02.870Z,61.41
2023-05-10T03:15:16.064Z,60.99
2023-05-10T03:18:25.765Z,61.51
2023-05-10T03:21:32.894Z,61.59
2023-05-10T03:24:41.566Z,61.62
2023-05-10T03:27:47.533Z,61.27
2023-05-10T03:30:52.250Z,61.17
2023-05-10T03:33:57.386Z,61.29
2023-05-10T03:37:03.563Z,60.70
2023-05-10T03:40:11.181Z,60.72
2023-05-10T03:43:18.079Z,60.72
2023-05-10T03:46:21.941Z,61.46
2023-05-10T03:49:25.558Z,61.65
2023-05-10T03:52:29.350Z,61.02
2023-05-10T03:55:35.561Z,61.31
2023-05-10T03:58:39.957Z,60.98
2023-05-10T04:01:45.593Z,60.98
2023-05-10T04:04:49.469Z,61.76
2023-05-10T04:07:52.958Z,61.88
2023-05-10T04:11:07.546Z,61.94
2023-05-10T04:14:11.207Z,62.92
2023-05-10T04:17:15.357Z,62.56
2023-05-10T04:20:19.334Z,62.44
2023-05-10T04:23:23.214Z,61.85
2023-05-10T04:26:28.077Z,61.33
2023-05-10T04:29:32.021Z,61.10
2023-05-10T04:32:35.732Z,60.82
2023-05-10T04:35:41.151Z,60.81
2023-05-10T04:38:45.227Z,61.42
2023-05-10T04:41:50.737Z,60.98
2023-05-10T04:44:54.286Z,62.22
2023-05-10T04:47:58.252Z,61.69
2023-05-10T04:51:02.240Z,62.00
2023-05-10T04:54:06.905Z,61.50
2023-05-10T04:57:12.242Z,61.42
2023-05-10T05:00:17.436Z,59.98
2023-05-10T05:03:21.235Z,58.44
2023-05-10T05:06:28.387Z,59.61
2023-05-10T05:09:33.108Z,59.25
2023-05-10T05:12:38.609Z,60.12
2023-05-10T05:15:42.099Z,58.33
2023-05-10T05:18:46.127Z,57.49
2023-05-10T05:21:49.642Z,58.28
2023-05-10T05:24:53.589Z,57.32
2023-05-10T05:27:58.536Z,57.31
2023-05-10T05:31:03.123Z,56.74
2023-05-10T05:34:06.620Z,59.20
2023-05-10T05:37:15.153Z,58.65
2023-05-10T05:40:18.800Z,58.52
2023-05-10T05:43:24.608Z,58.59
2023-05-10T05:46:28.342Z,57.09
2023-05-10T05:49:33.105Z,56.74
2023-05-10T05:52:37.203Z,58.52
2023-05-10T05:55:41.078Z,58.04
2023-05-10T05:58:46.767Z,59.79
2023-05-10T06:01:50.372Z,57.68
2023-05-10T06:04:54.459Z,56.46
2023-05-10T06:07:57.964Z,55.53
2023-05-10T06:11:02.026Z,55.95
2023-05-10T06:14:08.243Z,55.65
2023-05-10T06:17:11.974Z,58.27
2023-05-10T06:20:16.009Z,56.47
2023-05-10T06:23:19.803Z,56.30
2023-05-10T06:26:23.547Z,56.17
2023-05-10T06:29:28.746Z,57.01
2023-05-10T06:32:32.450Z,55.54
2023-05-10T06:35:36.317Z,55.52
2023-05-10T06:38:39.829Z,55.29
2023-05-10T06:41:43.932Z,53.82
2023-05-10T06:44:48.944Z,53.09
2023-05-10T06:47:53.194Z,52.17
2023-05-10T06:50:56.732Z,49.04
2023-05-10T06:54:00.523Z,49.12
2023-05-10T06:57:10.752Z,48.96
2023-05-10T07:00:23.004Z,49.70
2023-05-10T07:03:26.730Z,49.39
2023-05-10T07:06:33.780Z,50.28
2023-05-10T07:09:37.575Z,50.17
2023-05-10T07:12:42.716Z,50.27
2023-05-10T07:15:47.646Z,51.46
2023-05-10T07:18:52.027Z,51.05
2023-05-10T07:21:55.439Z,53.53
2023-05-10T07:24:59.630Z,54.51
2023-05-10T07:28:03.376Z,56.53
2023-05-10T07:31:08.965Z,56.01
2023-05-10T07:34:12.621Z,53.79
2023-05-10T07:37:17.215Z,53.21
2023-05-10T07:40:21.323Z,52.64
2023-05-10T07:43:25.506Z,52.15
2023-05-10T07:46:30.517Z,52.05
2023-05-10T07:49:34.580Z,52.11
2023-05-10T07:52:38.282Z,51.77
2023-05-10T07:55:42.539Z,52.05
2023-05-10T07:58:48.007Z,51.26
2023-05-10T08:01:53.735Z,50.52
2023-05-10T08:04:58.779Z,51.07
2023-05-10T08:08:02.890Z,50.96
2023-05-10T08:11:06.677Z,50.99
2023-05-10T08:14:14.412Z,50.46
2023-05-10T08:17:40.960Z,50.64
2023-05-10T08:20:44.825Z,51.88
2023-05-10T08:23:52.423Z,52.66
2023-05-10T08:26:59.040Z,54.16
2023-05-10T08:30:02.694Z,53.62
2023-05-10T08:33:09.924Z,52.92
2023-05-10T08:36:15.300Z,52.86
2023-05-10T08:39:29.833Z,52.17
2023-05-10T08:42:38.963Z,51.59
2023-05-10T08:45:44.583Z,51.97
2023-05-10T08:48:51.076Z,52.60
2023-05-10T08:51:57.511Z,51.66
2023-05-10T08:55:01.241Z,51.31
2023-05-10T08:58:06.090Z,51.81
2023-05-10T09:01:11.038Z,52.19
2023-05-10T09:04:16.701Z,51.93
2023-05-10T09:07:21.268Z,51.19
2023-05-10T09:10:28.351Z,51.01
2023-05-10T09:13:32.450Z,51.13
2023-05-10T09:16:36.758Z,50.75
2023-05-10T09:19:41.737Z,50.32
2023-05-10T09:22:46.054Z,49.78
2023-05-10T09:25:50.121Z,50.51
2023-05-10T09:28:57.241Z,50.52
2023-05-10T09:32:01.180Z,49.79
2023-05-10T09:35:11.164Z,49.33
2023-05-10T09:38:14.631Z,51.15
2023-05-10T09:41:19.913Z,51.01
2023-05-10T09:44:23.900Z,49.90
2023-05-10T09:47:28.074Z,50.16
2023-05-10T09:50:32.992Z,49.34
2023-05-10T09:53:37.543Z,49.48
2023-05-10T09:56:41.705Z,49.31
2023-05-10T09:59:46.319Z,49.35
2023-05-10T10:02:56.905Z,49.72
2023-05-10T10:06:03.096Z,49.66
2023-05-10T10:09:16.686Z,50.68
2023-05-10T10:12:23.832Z,50.90
2023-05-10T10:15:27.881Z,51.52
2023-05-10T10:18:33.402Z,50.88
2023-05-10T10:21:38.589Z,49.74
2023-05-10T10:24:42.874Z,49.02
2023-05-10T10:27:56.160Z,48.71
2023-05-10T10:31:06.774Z,48.79
2023-05-10T10:34:15.055Z,48.01
2023-05-10T10:37:20.780Z,48.46
2023-05-10T10:40:30.875Z,48.71
2023-05-10T10:43:36.650Z,49.16
2023-05-10T10:47:01.541Z,48.24
2023-05-10T10:50:07.408Z,49.12
2023-05-10T10:53:15.424Z,49.63
2023-05-10T10:56:25.355Z,50.23
2023-05-10T10:59:29.370Z,50.36
2023-05-10T11:02:45.386Z,51.57
2023-05-10T11:05:50.146Z,50.12
2023-05-10T11:08:58.073Z,51.08
2023-05-10T11:12:01.766Z,51.07
2023-05-10T11:15:11.474Z,50.31
2023-05-10T11:18:22.956Z,50.62
2023-05-10T11:21:27.211Z,49.61
2023-05-10T11:24:32.240Z,50.31
2023-05-10T11:27:39.874Z,51.39
2023-05-10T11:30:46.105Z,52.38
2023-05-10T11:33:54.360Z,51.28
2023-05-10T11:37:04.881Z,50.11
2023-05-10T11:40:11.256Z,52.49
2023-05-10T11:43:14.829Z,53.34
2023-05-10T11:46:21.718Z,53.25
2023-05-10T11:49:28.280Z,54.33
2023-05-10T11:52:39.587Z,53.64
2023-05-10T11:55:45.976Z,53.33
2023-05-10T11:58:56.655Z,51.96
2023-05-10T12:02:00.791Z,51.43
2023-05-10T12:05:06.344Z,50.72
2023-05-10T12:08:14.033Z,50.43
2023-05-10T12:11:20.422Z,51.34
2023-05-10T12:14:28.193Z,50.72
2023-05-10T12:17:35.233Z,50.73
2023-05-10T12:20:39.877Z,51.23
2023-05-10T12:23:44.100Z,51.92
2023-05-10T12:26:55.261Z,51.86
2023-05-10T12:30:01.517Z,51.13
2023-05-10T12:33:10.644Z,52.34
2023-05-10T12:36:16.613Z,52.51
2023-05-10T12:39:20.137Z,52.65
2023-05-10T12:42:26.158Z,52.75
2023-05-10T12:45:29.849Z,53.45
2023-05-10T12:48:34.995Z,54.11
2023-05-10T12:51:38.614Z,54.65
2023-05-10T12:54:42.455Z,53.87
2023-05-10T12:57:47.285Z,54.46
2023-05-10T13:00:52.737Z,54.62
2023-05-10T13:03:56.636Z,53.93
2023-05-10T13:07:00.752Z,53.22
2023-05-10T13:10:04.223Z,52.68
2023-05-10T13:13:09.665Z,52.46
2023-05-10T13:16:13.247Z,52.92
2023-05-10T13:19:18.616Z,52.38
2023-05-10T13:22:32.388Z,53.62
2023-05-10T13:25:36.582Z,55.79
2023-05-10T13:28:49.078Z,55.62
2023-05-10T13:31:53.553Z,55.17
2023-05-10T13:34:57.189Z,54.57
2023-05-10T13:38:01.110Z,54.19
2023-05-10T13:41:04.717Z,54.55
2023-05-10T13:44:10.220Z,54.08
2023-05-10T13:47:13.906Z,54.65
2023-05-10T13:50:18.030Z,54.16
2023-05-10T13:53:22.068Z,55.27
2023-05-10T13:56:26.487Z,54.88
2023-05-10T13:59:32.803Z,54.33
2023-05-10T14:02:36.663Z,55.08
2023-05-10T14:05:41.733Z,55.06
2023-05-10T14:08:47.823Z,53.91
2023-05-10T14:11:52.481Z,53.93
2023-05-10T14:14:59.668Z,53.89
2023-05-10T14:18:03.134Z,55.22
2023-05-10T14:21:07.167Z,54.14
2023-05-10T14:24:12.214Z,54.05
2023-05-10T14:27:20.307Z,53.99
2023-05-10T14:30:26.928Z,55.75
2023-05-10T14:33:30.895Z,54.63
2023-05-10T14:36:34.650Z,53.90
2023-05-10T14:39:39.050Z,53.40
2023-05-10T14:42:43.021Z,52.88
2023-05-10T14:45:48.882Z,53.61
2023-05-10T14:48:52.594Z,54.24
2023-05-10T14:51:56.573Z,53.66
2023-05-10T14:55:02.399Z,53.64
2023-05-10T14:58:06.708Z,53.92
2023-05-10T15:01:12.049Z,54.11
2023-05-10T15:04:17.558Z,54.87
2023-05-10T15:07:21.880Z,53.33
2023-05-10T15:10:26.304Z,52.57
2023-05-10T15:13:30.855Z,52.63
2023-05-10T15:16:36.452Z,52.71
2023-05-10T15:19:40.064Z,53.27
2023-05-10T15:22:46.544Z,52.91
2023-05-10T15:25:50.840Z,52.67
2023-05-10T15:28:55.293Z,52.73
2023-05-10T15:32:00.311Z,52.23
2023-05-10T15:35:05.896Z,52.18
2023-05-10T15:38:09.699Z,52.21
2023-05-10T15:41:15.595Z,52.80
2023-05-10T15:44:19.528Z,52.83
2023-05-10T15:47:25.494Z,52.15
2023-05-10T15:50:29.251Z,52.60
2023-05-10T15:53:35.561Z,52.59
2023-05-10T15:56:39.470Z,52.63
2023-05-10T15:59:43.473Z,52.72
2023-05-10T16:02:51.244Z,52.64
2023-05-10T16:05:58.323Z,53.09
2023-05-10T16:09:02.057Z,53.18
2023-05-10T16:12:06.028Z,53.00
2023-05-10T16:18:39.752Z,53.80
2023-05-10T16:21:44.046Z,53.37
2023-05-10T16:25:02.085Z,53.35
2023-05-10T16:28:21.257Z,53.37
2023-05-10T16:31:26.780Z,53.51
2023-05-10T16:34:31.911Z,54.17
2023-05-10T16:37:38.486Z,53.22
2023-05-10T16:40:42.117Z,53.29
2023-05-10T16:43:46.045Z,53.53
2023-05-10T16:46:49.807Z,53.79
2023-05-10T16:49:55.242Z,54.15
2023-05-10T16:52:58.970Z,54.12
2023-05-10T16:56:03.174Z,53.94
2023-05-10T16:59:07.132Z,53.78
2023-05-10T17:02:11.394Z,54.03
2023-05-10T17:05:16.835Z,53.70
2023-05-10T17:08:20.987Z,54.17
2023-05-10T17:11:24.648Z,53.78
2023-05-10T17:14:28.821Z,54.00
2023-05-10T17:17:41.822Z,54.16
2023-05-10T17:20:52.424Z,54.83
2023-05-10T17:23:56.114Z,54.28
2023-05-10T17:27:01.681Z,54.63
2023-05-10T17:30:05.990Z,54.47
2023-05-10T17:33:09.852Z,54.41
2023-05-10T17:36:16.054Z,55.81
2023-05-10T17:39:20.077Z,55.41
2023-05-10T17:42:23.628Z,55.07
2023-05-10T17:45:27.699Z,55.71
2023-05-10T17:48:31.267Z,55.43
2023-05-10T17:51:36.803Z,56.22
2023-05-10T17:54:43.963Z,58.00
2023-05-10T17:57:52.529Z,57.12
2023-05-10T18:00:57.791Z,57.47
2023-05-10T18:04:01.784Z,56.73
2023-05-10T18:07:06.738Z,57.14
2023-05-10T18:10:12.262Z,57.47
2023-05-10T18:13:15.819Z,58.43
2023-05-10T18:16:21.907Z,59.54
2023-05-10T18:19:26.359Z,58.03
2023-05-10T18:22:32.266Z,57.71
2023-05-10T18:25:36.291Z,57.89
2023-05-10T18:28:40.601Z,57.73
2023-05-10T18:31:44.315Z,57.78
2023-05-10T18:34:48.332Z,57.78
2023-05-10T18:37:53.872Z,58.88
2023-05-10T18:40:58.683Z,59.03
2023-05-10T18:44:02.373Z,58.04
2023-05-10T18:47:06.900Z,58.70
2023-05-10T18:50:11.299Z,58.53
2023-05-10T18:53:17.174Z,59.63
2023-05-10T18:56:22.123Z,59.81
2023-05-10T18:59:27.908Z,60.41
2023-05-10T19:02:31.637Z,60.31
2023-05-10T19:05:35.749Z,60.75
2023-05-10T19:08:41.926Z,60.47
2023-05-10T19:11:46.044Z,60.10
2023-05-10T19:14:49.497Z,60.61
2023-05-10T19:17:53.770Z,59.79
2023-05-10T19:20:57.545Z,60.06
2023-05-10T19:24:03.500Z,61.64
2023-05-10T19:27:07.632Z,62.19
2023-05-10T19:30:13.166Z,61.47
2023-05-10T19:33:17.192Z,61.54
2023-05-10T19:36:21.378Z,61.63
2023-05-10T19:39:28.673Z,61.46
2023-05-10T19:47:42.827Z,61.06
2023-05-10T19:50:46.509Z,60.15
2023-05-10T19:53:50.781Z,59.69
2023-05-10T19:56:55.833Z,59.04
2023-05-10T20:00:00.000Z,58.18
2023-05-10T20:03:07.016Z,57.84
2023-05-10T20:06:13.278Z,58.18
2023-05-10T20:09:16.903Z,58.24
2023-05-10T20:12:22.755Z,57.62
2023-05-10T20:15:26.411Z,57.35
2023-05-10T20:18:30.934Z,57.43
2023-05-10T20:21:34.760Z,57.87
2023-05-10T20:24:38.556Z,57.97
2023-05-10T20:27:43.571Z,59.42
2023-05-10T20:30:47.480Z,58.95
2023-05-10T20:33:52.152Z,58.80
2023-05-10T20:36:56.059Z,59.17
2023-05-10T20:39:59.980Z,58.51
2023-05-10T20:43:08.216Z,57.70
2023-05-10T20:46:12.664Z,57.51
2023-05-10T20:49:17.808Z,57.43
2023-05-10T20:52:23.356Z,56.83
2023-05-10T20:55:28.655Z,57.11
2023-05-10T20:58:33.833Z,57.47
2023-05-10T21:01:37.839Z,56.83
2023-05-10T21:04:41.586Z,56.62
2023-05-10T21:07:45.901Z,56.10
2023-05-10T21:10:49.438Z,55.99
2023-05-10T21:13:55.175Z,56.16
2023-05-10T21:17:07.375Z,56.04
2023-05-10T21:20:12.766Z,55.95
2023-05-10T21:23:16.594Z,55.34
2023-05-10T21:26:24.516Z,55.11
2023-05-10T21:29:29.474Z,55.13
2023-05-10T21:32:33.765Z,54.87
2023-05-10T21:35:39.351Z,54.88
2023-05-10T21:38:44.574Z,56.53
2023-05-10T21:41:48.024Z,57.05
2023-05-10T21:44:53.816Z,56.50
2023-05-10T21:47:57.301Z,56.69
2023-05-10T21:51:01.685Z,55.73
2023-05-10T21:54:05.519Z,56.55
2023-05-10T21:57:10.305Z,56.26
2023-05-10T22:00:16.660Z,56.01
2023-05-10T22:03:21.220Z,57.55
2023-05-10T22:06:24.739Z,56.31
2023-05-10T22:09:28.952Z,56.11
2023-05-10T22:12:32.516Z,55.71
2023-05-10T22:15:38.094Z,56.59
2023-05-10T22:18:41.960Z,56.07
2023-05-10T22:21:46.265Z,56.42
2023-05-10T22:24:49.818Z,56.29
2023-05-10T22:27:53.733Z,56.14
2023-05-10T22:30:58.765Z,56.27
2023-05-10T22:34:02.532Z,56.02
2023-05-10T22:37:06.058Z,55.95
2023-05-10T22:40:11.625Z,55.99
2023-05-10T22:43:15.270Z,55.74
2023-05-10T22:46:20.392Z,55.62
2023-05-10T22:49:23.932Z,55.98
2023-05-10T22:52:27.906Z,55.74
2023-05-10T22:55:31.773Z,56.18
2023-05-10T22:58:35.828Z,56.72
2023-05-10T23:01:40.954Z,56.24
2023-05-10T23:04:45.002Z,56.00
2023-05-10T23:07:53.615Z,55.83
2023-05-10T23:10:57.663Z,55.86
2023-05-10T23:14:01.222Z,56.01
2023-05-10T23:17:06.567Z,55.82
2023-05-10T23:20:11.163Z,55.72
2023-05-10T23:23:15.017Z,56.36
2023-05-10T23:26:18.485Z,55.83
2023-05-10T23:29:24.017Z,55.14
2023-05-10T23:32:28.986Z,55.32
2023-05-10T23:35:33.288Z,55.04
2023-05-10T23:38:36.768Z,55.26
2023-05-10T23:41:40.751Z,55.09
2023-05-10T23:44:44.385Z,55.92
2023-05-10T23:47:49.968Z,55.43
2023-05-10T23:50:55.600Z,55.50
2023-05-10T23:53:59.536Z,55.48
2023-05-10T23:57:03.313Z,55.47
